sensor_id;sensor_type;location;lat;lon;timestamp;temperature;humidity
12477;DHT22;6303;51.504;6.300;2022-10-22T00:01:16;23.10;68.90
12477;DHT22;6303;51.504;6.300;2022-10-22T00:03:45;23.10;68.90
12477;DHT22;6303;51.504;6.300;2022-10-22T00:06:13;23.10;68.90
12477;DHT22;6303;51.504;6.300;2022-10-22T00:08:40;23.10;69.00
12477;DHT22;6303;51.504;6.300;2022-10-22T00:11:09;23.10;69.00
12477;DHT22;6303;51.504;6.300;2022-10-22T00:13:37;23.10;69.00
12477;DHT22;6303;51.504;6.300;2022-10-22T00:16:04;23.00;68.80
12477;DHT22;6303;51.504;6.300;2022-10-22T00:18:31;23.10;68.90
12477;DHT22;6303;51.504;6.300;2022-10-22T00:20:58;23.10;68.90
12477;DHT22;6303;51.504;6.300;2022-10-22T00:23:26;23.10;68.90
12477;DHT22;6303;51.504;6.300;2022-10-22T00:25:54;23.00;68.80
12477;DHT22;6303;51.504;6.300;2022-10-22T00:28:21;23.00;68.80
12477;DHT22;6303;51.504;6.300;2022-10-22T00:30:54;23.00;68.90
12477;DHT22;6303;51.504;6.300;2022-10-22T00:33:21;23.00;68.90
12477;DHT22;6303;51.504;6.300;2022-10-22T00:35:48;23.10;68.90
12477;DHT22;6303;51.504;6.300;2022-10-22T00:38:16;23.00;68.80
12477;DHT22;6303;51.504;6.300;2022-10-22T00:40:45;23.00;68.90
12477;DHT22;6303;51.504;6.300;2022-10-22T00:43:14;23.00;69.10
12477;DHT22;6303;51.504;6.300;2022-10-22T00:45:41;23.10;69.40
12477;DHT22;6303;51.504;6.300;2022-10-22T00:48:09;23.10;69.60
12477;DHT22;6303;51.504;6.300;2022-10-22T00:50:40;23.10;69.80
12477;DHT22;6303;51.504;6.300;2022-10-22T00:53:11;23.00;69.90
12477;DHT22;6303;51.504;6.300;2022-10-22T00:55:39;23.00;69.90
12477;DHT22;6303;51.504;6.300;2022-10-22T00:58:09;23.00;70.00
12477;DHT22;6303;51.504;6.300;2022-10-22T01:00:36;23.00;70.00
12477;DHT22;6303;51.504;6.300;2022-10-22T01:03:03;23.00;70.00
12477;DHT22;6303;51.504;6.300;2022-10-22T01:05:32;23.00;70.00
12477;DHT22;6303;51.504;6.300;2022-10-22T01:08:03;23.00;70.00
12477;DHT22;6303;51.504;6.300;2022-10-22T01:10:42;23.00;70.00
12477;DHT22;6303;51.504;6.300;2022-10-22T01:13:20;22.30;69.60
12477;DHT22;6303;51.504;6.300;2022-10-22T01:15:53;23.00;70.00
12477;DHT22;6303;51.504;6.300;2022-10-22T01:18:26;23.00;70.00
12477;DHT22;6303;51.504;6.300;2022-10-22T01:21:02;23.00;70.00
12477;DHT22;6303;51.504;6.300;2022-10-22T01:23:49;23.00;70.00
12477;DHT22;6303;51.504;6.300;2022-10-22T01:26:24;23.00;69.90
12477;DHT22;6303;51.504;6.300;2022-10-22T01:29:00;23.00;69.80
12477;DHT22;6303;51.504;6.300;2022-10-22T01:31:30;23.00;69.80
12477;DHT22;6303;51.504;6.300;2022-10-22T01:33:58;22.90;69.70
12477;DHT22;6303;51.504;6.300;2022-10-22T01:36:28;22.90;69.70
12477;DHT22;6303;51.504;6.300;2022-10-22T01:38:56;22.90;69.80
12477;DHT22;6303;51.504;6.300;2022-10-22T01:41:26;22.90;69.80
12477;DHT22;6303;51.504;6.300;2022-10-22T01:43:54;22.90;69.70
12477;DHT22;6303;51.504;6.300;2022-10-22T01:46:23;22.90;69.70
12477;DHT22;6303;51.504;6.300;2022-10-22T01:49:08;22.90;69.60
12477;DHT22;6303;51.504;6.300;2022-10-22T01:51:48;21.30;69.40
12477;DHT22;6303;51.504;6.300;2022-10-22T01:54:26;22.90;69.60
12477;DHT22;6303;51.504;6.300;2022-10-22T01:57:02;22.90;69.70
12477;DHT22;6303;51.504;6.300;2022-10-22T01:59:41;22.90;69.70
12477;DHT22;6303;51.504;6.300;2022-10-22T02:02:21;22.90;69.60
12477;DHT22;6303;51.504;6.300;2022-10-22T02:04:52;22.90;69.60
12477;DHT22;6303;51.504;6.300;2022-10-22T02:07:25;22.90;69.60
12477;DHT22;6303;51.504;6.300;2022-10-22T02:09:55;22.90;69.60
12477;DHT22;6303;51.504;6.300;2022-10-22T02:12:24;22.90;69.60
12477;DHT22;6303;51.504;6.300;2022-10-22T02:14:53;22.90;69.60
12477;DHT22;6303;51.504;6.300;2022-10-22T02:17:23;22.90;69.50
12477;DHT22;6303;51.504;6.300;2022-10-22T02:19:55;22.90;69.40
12477;DHT22;6303;51.504;6.300;2022-10-22T02:22:23;22.90;69.60
12477;DHT22;6303;51.504;6.300;2022-10-22T02:24:50;22.90;69.60
12477;DHT22;6303;51.504;6.300;2022-10-22T02:27:20;22.90;69.60
12477;DHT22;6303;51.504;6.300;2022-10-22T02:29:54;22.90;69.50
12477;DHT22;6303;51.504;6.300;2022-10-22T02:32:25;22.90;69.50
12477;DHT22;6303;51.504;6.300;2022-10-22T02:34:54;22.90;69.60
12477;DHT22;6303;51.504;6.300;2022-10-22T02:37:23;22.90;69.60
12477;DHT22;6303;51.504;6.300;2022-10-22T02:39:52;22.90;69.60
12477;DHT22;6303;51.504;6.300;2022-10-22T02:42:22;22.90;69.50
12477;DHT22;6303;51.504;6.300;2022-10-22T02:44:50;22.80;69.40
12477;DHT22;6303;51.504;6.300;2022-10-22T02:47:17;22.90;69.50
12477;DHT22;6303;51.504;6.300;2022-10-22T02:49:45;22.90;69.60
12477;DHT22;6303;51.504;6.300;2022-10-22T02:52:12;22.90;69.60
12477;DHT22;6303;51.504;6.300;2022-10-22T02:54:39;22.90;69.60
12477;DHT22;6303;51.504;6.300;2022-10-22T02:57:06;22.90;69.60
12477;DHT22;6303;51.504;6.300;2022-10-22T02:59:33;22.80;69.60
12477;DHT22;6303;51.504;6.300;2022-10-22T03:02:00;22.80;69.50
12477;DHT22;6303;51.504;6.300;2022-10-22T03:04:27;22.80;69.50
12477;DHT22;6303;51.504;6.300;2022-10-22T03:06:56;22.90;69.50
12477;DHT22;6303;51.504;6.300;2022-10-22T03:09:23;22.90;69.50
12477;DHT22;6303;51.504;6.300;2022-10-22T03:11:51;22.90;69.50
12477;DHT22;6303;51.504;6.300;2022-10-22T03:14:18;22.80;69.50
12477;DHT22;6303;51.504;6.300;2022-10-22T03:16:45;22.80;69.60
12477;DHT22;6303;51.504;6.300;2022-10-22T03:19:12;22.80;69.50
12477;DHT22;6303;51.504;6.300;2022-10-22T03:21:42;22.80;69.40
12477;DHT22;6303;51.504;6.300;2022-10-22T03:24:16;22.80;69.50
12477;DHT22;6303;51.504;6.300;2022-10-22T03:26:44;22.80;69.50
12477;DHT22;6303;51.504;6.300;2022-10-22T03:29:12;22.80;69.40
12477;DHT22;6303;51.504;6.300;2022-10-22T03:31:41;22.80;69.40
12477;DHT22;6303;51.504;6.300;2022-10-22T03:34:08;22.80;69.50
12477;DHT22;6303;51.504;6.300;2022-10-22T03:36:36;22.80;69.40
12477;DHT22;6303;51.504;6.300;2022-10-22T03:39:04;22.80;69.40
12477;DHT22;6303;51.504;6.300;2022-10-22T03:41:33;22.80;69.40
12477;DHT22;6303;51.504;6.300;2022-10-22T03:44:02;22.80;69.40
12477;DHT22;6303;51.504;6.300;2022-10-22T03:46:30;22.80;69.40
12477;DHT22;6303;51.504;6.300;2022-10-22T03:48:57;22.80;69.30
12477;DHT22;6303;51.504;6.300;2022-10-22T03:51:25;22.80;69.40
12477;DHT22;6303;51.504;6.300;2022-10-22T03:53:53;22.80;69.50
12477;DHT22;6303;51.504;6.300;2022-10-22T03:56:20;22.80;69.50
12477;DHT22;6303;51.504;6.300;2022-10-22T03:58:48;22.80;69.40
12477;DHT22;6303;51.504;6.300;2022-10-22T04:01:15;22.80;69.40
12477;DHT22;6303;51.504;6.300;2022-10-22T04:03:43;22.80;69.50
12477;DHT22;6303;51.504;6.300;2022-10-22T04:06:11;22.80;69.50
12477;DHT22;6303;51.504;6.300;2022-10-22T04:08:39;22.80;69.50
12477;DHT22;6303;51.504;6.300;2022-10-22T04:11:07;22.80;69.60
12477;DHT22;6303;51.504;6.300;2022-10-22T04:13:34;22.80;69.60
12477;DHT22;6303;51.504;6.300;2022-10-22T04:16:10;22.80;69.60
12477;DHT22;6303;51.504;6.300;2022-10-22T04:18:38;22.80;69.50
12477;DHT22;6303;51.504;6.300;2022-10-22T04:21:06;22.80;69.50
12477;DHT22;6303;51.504;6.300;2022-10-22T04:23:33;22.80;69.50
12477;DHT22;6303;51.504;6.300;2022-10-22T04:26:03;22.80;69.40
12477;DHT22;6303;51.504;6.300;2022-10-22T04:28:30;22.80;69.40
12477;DHT22;6303;51.504;6.300;2022-10-22T04:30:58;22.80;69.40
12477;DHT22;6303;51.504;6.300;2022-10-22T04:33:26;22.80;69.40
12477;DHT22;6303;51.504;6.300;2022-10-22T04:35:53;22.80;69.30
12477;DHT22;6303;51.504;6.300;2022-10-22T04:38:20;22.80;69.30
12477;DHT22;6303;51.504;6.300;2022-10-22T04:40:47;22.80;69.40
12477;DHT22;6303;51.504;6.300;2022-10-22T04:43:14;22.80;69.50
12477;DHT22;6303;51.504;6.300;2022-10-22T04:45:41;22.80;69.50
12477;DHT22;6303;51.504;6.300;2022-10-22T04:48:08;22.70;69.40
12477;DHT22;6303;51.504;6.300;2022-10-22T04:50:36;22.80;69.60
12477;DHT22;6303;51.504;6.300;2022-10-22T04:53:08;22.70;69.50
12477;DHT22;6303;51.504;6.300;2022-10-22T04:55:35;22.70;69.50
12477;DHT22;6303;51.504;6.300;2022-10-22T04:58:02;22.80;69.50
12477;DHT22;6303;51.504;6.300;2022-10-22T05:00:29;22.70;69.40
12477;DHT22;6303;51.504;6.300;2022-10-22T05:02:56;22.70;69.40
12477;DHT22;6303;51.504;6.300;2022-10-22T05:05:23;22.70;69.40
12477;DHT22;6303;51.504;6.300;2022-10-22T05:07:51;22.70;69.30
12477;DHT22;6303;51.504;6.300;2022-10-22T05:10:18;22.70;69.30
12477;DHT22;6303;51.504;6.300;2022-10-22T05:12:46;22.70;69.30
12477;DHT22;6303;51.504;6.300;2022-10-22T05:15:13;22.70;69.20
12477;DHT22;6303;51.504;6.300;2022-10-22T05:17:40;22.70;69.20
12477;DHT22;6303;51.504;6.300;2022-10-22T05:20:08;22.70;69.20
12477;DHT22;6303;51.504;6.300;2022-10-22T05:22:35;22.70;69.20
12477;DHT22;6303;51.504;6.300;2022-10-22T05:25:04;22.70;69.20
12477;DHT22;6303;51.504;6.300;2022-10-22T05:27:31;22.70;69.20
12477;DHT22;6303;51.504;6.300;2022-10-22T05:29:58;22.70;69.20
12477;DHT22;6303;51.504;6.300;2022-10-22T05:32:25;22.70;69.20
12477;DHT22;6303;51.504;6.300;2022-10-22T05:34:52;22.80;69.20
12477;DHT22;6303;51.504;6.300;2022-10-22T05:37:19;22.70;69.10
12477;DHT22;6303;51.504;6.300;2022-10-22T05:39:46;22.70;69.10
12477;DHT22;6303;51.504;6.300;2022-10-22T05:42:14;22.80;69.10
12477;DHT22;6303;51.504;6.300;2022-10-22T05:44:41;22.70;69.00
12477;DHT22;6303;51.504;6.300;2022-10-22T05:47:08;22.80;69.10
12477;DHT22;6303;51.504;6.300;2022-10-22T05:49:35;22.70;69.00
12477;DHT22;6303;51.504;6.300;2022-10-22T05:52:02;22.70;69.80
12477;DHT22;6303;51.504;6.300;2022-10-22T05:54:29;22.70;69.00
12477;DHT22;6303;51.504;6.300;2022-10-22T05:56:56;22.70;69.00
12477;DHT22;6303;51.504;6.300;2022-10-22T05:59:25;22.70;69.10
12477;DHT22;6303;51.504;6.300;2022-10-22T06:01:52;22.80;69.10
12477;DHT22;6303;51.504;6.300;2022-10-22T06:04:19;22.70;69.00
12477;DHT22;6303;51.504;6.300;2022-10-22T06:06:48;22.70;69.10
12477;DHT22;6303;51.504;6.300;2022-10-22T06:09:19;22.80;69.20
12477;DHT22;6303;51.504;6.300;2022-10-22T06:11:48;22.70;69.10
12477;DHT22;6303;51.504;6.300;2022-10-22T06:14:16;22.70;69.10
12477;DHT22;6303;51.504;6.300;2022-10-22T06:16:44;22.70;69.10
12477;DHT22;6303;51.504;6.300;2022-10-22T06:19:13;22.80;69.20
12477;DHT22;6303;51.504;6.300;2022-10-22T06:21:40;22.70;69.10
12477;DHT22;6303;51.504;6.300;2022-10-22T06:24:08;22.80;69.10
12477;DHT22;6303;51.504;6.300;2022-10-22T06:26:36;22.80;69.10
12477;DHT22;6303;51.504;6.300;2022-10-22T06:29:03;22.80;69.00
12477;DHT22;6303;51.504;6.300;2022-10-22T06:31:30;22.80;69.00
12477;DHT22;6303;51.504;6.300;2022-10-22T06:34:03;22.80;68.90
12477;DHT22;6303;51.504;6.300;2022-10-22T06:36:30;22.80;68.90
12477;DHT22;6303;51.504;6.300;2022-10-22T06:38:57;22.80;68.80
12477;DHT22;6303;51.504;6.300;2022-10-22T06:41:24;22.90;68.70
12477;DHT22;6303;51.504;6.300;2022-10-22T06:43:52;22.90;68.50
12477;DHT22;6303;51.504;6.300;2022-10-22T06:46:21;22.90;68.40
12477;DHT22;6303;51.504;6.300;2022-10-22T06:48:49;22.90;68.30
12477;DHT22;6303;51.504;6.300;2022-10-22T06:51:18;23.00;68.10
12477;DHT22;6303;51.504;6.300;2022-10-22T06:53:47;23.00;67.90
12477;DHT22;6303;51.504;6.300;2022-10-22T06:56:16;23.00;67.70
12477;DHT22;6303;51.504;6.300;2022-10-22T06:58:45;23.10;67.70
12477;DHT22;6303;51.504;6.300;2022-10-22T07:01:14;23.10;67.70
12477;DHT22;6303;51.504;6.300;2022-10-22T07:03:41;23.10;67.60
12477;DHT22;6303;51.504;6.300;2022-10-22T07:06:11;23.10;67.60
12477;DHT22;6303;51.504;6.300;2022-10-22T07:08:40;23.10;67.60
12477;DHT22;6303;51.504;6.300;2022-10-22T07:11:09;23.10;67.50
12477;DHT22;6303;51.504;6.300;2022-10-22T07:13:37;23.10;67.50
12477;DHT22;6303;51.504;6.300;2022-10-22T07:16:06;23.10;67.40
12477;DHT22;6303;51.504;6.300;2022-10-22T07:18:34;23.10;67.30
12477;DHT22;6303;51.504;6.300;2022-10-22T07:21:01;23.20;67.30
12477;DHT22;6303;51.504;6.300;2022-10-22T07:23:29;23.20;68.00
12477;DHT22;6303;51.504;6.300;2022-10-22T07:25:58;23.20;67.30
12477;DHT22;6303;51.504;6.300;2022-10-22T07:28:27;23.20;67.30
12477;DHT22;6303;51.504;6.300;2022-10-22T07:30:54;23.20;67.20
12477;DHT22;6303;51.504;6.300;2022-10-22T07:33:21;23.20;67.20
12477;DHT22;6303;51.504;6.300;2022-10-22T07:35:48;23.30;67.00
12477;DHT22;6303;51.504;6.300;2022-10-22T07:38:15;23.30;66.70
12477;DHT22;6303;51.504;6.300;2022-10-22T07:40:42;23.50;66.40
12477;DHT22;6303;51.504;6.300;2022-10-22T07:43:10;23.60;66.00
12477;DHT22;6303;51.504;6.300;2022-10-22T07:45:37;23.70;65.50
12477;DHT22;6303;51.504;6.300;2022-10-22T07:48:06;23.70;65.10
12477;DHT22;6303;51.504;6.300;2022-10-22T07:50:33;23.70;65.00
12477;DHT22;6303;51.504;6.300;2022-10-22T07:53:00;23.60;65.20
12477;DHT22;6303;51.504;6.300;2022-10-22T07:55:27;23.60;65.30
12477;DHT22;6303;51.504;6.300;2022-10-22T07:57:54;23.60;65.30
12477;DHT22;6303;51.504;6.300;2022-10-22T08:00:22;23.50;65.30
12477;DHT22;6303;51.504;6.300;2022-10-22T08:02:49;23.50;65.40
12477;DHT22;6303;51.504;6.300;2022-10-22T08:05:17;23.50;65.40
12477;DHT22;6303;51.504;6.300;2022-10-22T08:07:44;23.50;65.40
12477;DHT22;6303;51.504;6.300;2022-10-22T08:10:11;23.40;65.40
12477;DHT22;6303;51.504;6.300;2022-10-22T08:12:38;23.50;65.50
12477;DHT22;6303;51.504;6.300;2022-10-22T08:15:07;23.50;65.50
12477;DHT22;6303;51.504;6.300;2022-10-22T08:17:35;23.40;65.60
12477;DHT22;6303;51.504;6.300;2022-10-22T08:20:03;23.40;65.50
12477;DHT22;6303;51.504;6.300;2022-10-22T08:22:30;23.40;65.60
12477;DHT22;6303;51.504;6.300;2022-10-22T08:24:57;23.40;65.60
12477;DHT22;6303;51.504;6.300;2022-10-22T08:27:25;23.40;65.60
12477;DHT22;6303;51.504;6.300;2022-10-22T08:29:52;23.40;65.60
12477;DHT22;6303;51.504;6.300;2022-10-22T08:32:19;23.40;65.60
12477;DHT22;6303;51.504;6.300;2022-10-22T08:34:47;23.40;65.60
12477;DHT22;6303;51.504;6.300;2022-10-22T08:37:14;23.40;65.60
12477;DHT22;6303;51.504;6.300;2022-10-22T08:39:42;23.40;65.60
12477;DHT22;6303;51.504;6.300;2022-10-22T08:42:26;23.40;65.50
12477;DHT22;6303;51.504;6.300;2022-10-22T08:45:02;23.40;65.60
12477;DHT22;6303;51.504;6.300;2022-10-22T08:47:43;23.40;65.70
12477;DHT22;6303;51.504;6.300;2022-10-22T08:50:18;23.40;65.70
12477;DHT22;6303;51.504;6.300;2022-10-22T08:52:49;23.40;65.80
12477;DHT22;6303;51.504;6.300;2022-10-22T08:55:18;23.50;65.80
12477;DHT22;6303;51.504;6.300;2022-10-22T08:57:50;23.40;65.70
12477;DHT22;6303;51.504;6.300;2022-10-22T09:00:21;23.40;65.70
12477;DHT22;6303;51.504;6.300;2022-10-22T09:02:59;23.50;65.80
12477;DHT22;6303;51.504;6.300;2022-10-22T09:05:41;23.40;65.70
12477;DHT22;6303;51.504;6.300;2022-10-22T09:08:12;23.50;65.80
12477;DHT22;6303;51.504;6.300;2022-10-22T09:10:45;23.50;65.80
12477;DHT22;6303;51.504;6.300;2022-10-22T09:13:16;23.50;65.60
12477;DHT22;6303;51.504;6.300;2022-10-22T09:15:44;23.50;65.60
12477;DHT22;6303;51.504;6.300;2022-10-22T09:18:23;23.50;65.50
12477;DHT22;6303;51.504;6.300;2022-10-22T09:20:58;23.50;65.60
12477;DHT22;6303;51.504;6.300;2022-10-22T09:23:31;23.50;65.60
12477;DHT22;6303;51.504;6.300;2022-10-22T09:25:59;23.50;65.50
12477;DHT22;6303;51.504;6.300;2022-10-22T09:28:27;23.60;65.50
12477;DHT22;6303;51.504;6.300;2022-10-22T09:30:54;23.60;65.50
12477;DHT22;6303;51.504;6.300;2022-10-22T09:33:24;23.60;65.40
12477;DHT22;6303;51.504;6.300;2022-10-22T09:35:53;23.60;65.40
12477;DHT22;6303;51.504;6.300;2022-10-22T09:38:25;23.60;65.30
12477;DHT22;6303;51.504;6.300;2022-10-22T09:40:55;23.60;65.20
12477;DHT22;6303;51.504;6.300;2022-10-22T09:43:23;23.60;65.20
12477;DHT22;6303;51.504;6.300;2022-10-22T09:45:55;23.60;65.20
12477;DHT22;6303;51.504;6.300;2022-10-22T09:48:28;23.60;65.20
12477;DHT22;6303;51.504;6.300;2022-10-22T09:51:02;23.60;65.20
12477;DHT22;6303;51.504;6.300;2022-10-22T09:53:35;23.60;65.20
12477;DHT22;6303;51.504;6.300;2022-10-22T09:56:07;23.60;65.20
12477;DHT22;6303;51.504;6.300;2022-10-22T09:58:41;23.60;65.20
12477;DHT22;6303;51.504;6.300;2022-10-22T10:01:17;23.60;65.20
12477;DHT22;6303;51.504;6.300;2022-10-22T10:03:47;23.60;65.10
12477;DHT22;6303;51.504;6.300;2022-10-22T10:06:17;23.60;65.10
12477;DHT22;6303;51.504;6.300;2022-10-22T10:08:48;23.60;65.10
12477;DHT22;6303;51.504;6.300;2022-10-22T10:11:22;23.60;65.00
12477;DHT22;6303;51.504;6.300;2022-10-22T10:13:57;23.60;65.00
12477;DHT22;6303;51.504;6.300;2022-10-22T10:16:34;23.70;65.00
12477;DHT22;6303;51.504;6.300;2022-10-22T10:19:32;23.70;65.00
12477;DHT22;6303;51.504;6.300;2022-10-22T10:22:12;23.70;64.80
12477;DHT22;6303;51.504;6.300;2022-10-22T10:24:54;23.70;64.60
12477;DHT22;6303;51.504;6.300;2022-10-22T10:27:30;23.70;64.60
12477;DHT22;6303;51.504;6.300;2022-10-22T10:30:04;23.70;64.50
12477;DHT22;6303;51.504;6.300;2022-10-22T10:33:00;23.70;64.40
12477;DHT22;6303;51.504;6.300;2022-10-22T10:35:37;23.70;65.10
12477;DHT22;6303;51.504;6.300;2022-10-22T10:38:20;23.70;64.40
12477;DHT22;6303;51.504;6.300;2022-10-22T10:40:55;23.70;64.30
12477;DHT22;6303;51.504;6.300;2022-10-22T10:43:28;23.80;64.30
12477;DHT22;6303;51.504;6.300;2022-10-22T10:46:05;23.80;64.10
12477;DHT22;6303;51.504;6.300;2022-10-22T10:48:43;23.80;64.00
12477;DHT22;6303;51.504;6.300;2022-10-22T10:51:30;23.80;64.00
12477;DHT22;6303;51.504;6.300;2022-10-22T10:54:09;23.90;64.10
12477;DHT22;6303;51.504;6.300;2022-10-22T10:56:44;23.90;64.50
12477;DHT22;6303;51.504;6.300;2022-10-22T10:59:17;23.90;64.50
12477;DHT22;6303;51.504;6.300;2022-10-22T11:05:10;23.90;64.80
12477;DHT22;6303;51.504;6.300;2022-10-22T11:07:41;23.90;64.90
12477;DHT22;6303;51.504;6.300;2022-10-22T11:10:18;23.90;65.00
12477;DHT22;6303;51.504;6.300;2022-10-22T11:12:55;23.90;65.10
12477;DHT22;6303;51.504;6.300;2022-10-22T11:15:27;23.90;65.10
12477;DHT22;6303;51.504;6.300;2022-10-22T11:18:02;23.90;65.20
12477;DHT22;6303;51.504;6.300;2022-10-22T11:20:40;23.90;65.20
12477;DHT22;6303;51.504;6.300;2022-10-22T11:23:13;23.90;65.30
12477;DHT22;6303;51.504;6.300;2022-10-22T11:25:44;23.80;65.30
12477;DHT22;6303;51.504;6.300;2022-10-22T11:28:17;23.80;65.30
12477;DHT22;6303;51.504;6.300;2022-10-22T11:30:50;23.80;65.30
12477;DHT22;6303;51.504;6.300;2022-10-22T11:33:25;23.80;65.40
12477;DHT22;6303;51.504;6.300;2022-10-22T11:36:01;23.80;65.40
12477;DHT22;6303;51.504;6.300;2022-10-22T11:38:30;25.60;66.60
12477;DHT22;6303;51.504;6.300;2022-10-22T11:41:00;23.80;65.30
12477;DHT22;6303;51.504;6.300;2022-10-22T11:43:31;23.90;65.30
12477;DHT22;6303;51.504;6.300;2022-10-22T11:46:30;21.80;64.00
12477;DHT22;6303;51.504;6.300;2022-10-22T11:49:13;23.90;65.30
12477;DHT22;6303;51.504;6.300;2022-10-22T11:51:42;23.90;65.20
12477;DHT22;6303;51.504;6.300;2022-10-22T11:54:27;23.90;65.10
12477;DHT22;6303;51.504;6.300;2022-10-22T11:56:58;23.90;65.10
12477;DHT22;6303;51.504;6.300;2022-10-22T11:59:44;23.90;65.10
12477;DHT22;6303;51.504;6.300;2022-10-22T12:02:44;23.90;65.00
12477;DHT22;6303;51.504;6.300;2022-10-22T12:05:43;23.90;64.80
12477;DHT22;6303;51.504;6.300;2022-10-22T12:08:24;24.00;64.70
12477;DHT22;6303;51.504;6.300;2022-10-22T12:11:13;23.90;64.60
12477;DHT22;6303;51.504;6.300;2022-10-22T12:14:15;24.00;64.60
12477;DHT22;6303;51.504;6.300;2022-10-22T12:16:45;24.00;64.60
12477;DHT22;6303;51.504;6.300;2022-10-22T12:19:16;24.00;64.80
12477;DHT22;6303;51.504;6.300;2022-10-22T12:21:47;24.00;64.80
12477;DHT22;6303;51.504;6.300;2022-10-22T12:24:18;24.00;64.80
12477;DHT22;6303;51.504;6.300;2022-10-22T12:26:46;24.00;64.90
12477;DHT22;6303;51.504;6.300;2022-10-22T12:29:15;24.00;64.90
12477;DHT22;6303;51.504;6.300;2022-10-22T12:31:45;24.00;65.00
12477;DHT22;6303;51.504;6.300;2022-10-22T12:34:14;24.10;65.00
12477;DHT22;6303;51.504;6.300;2022-10-22T12:36:41;24.10;65.00
12477;DHT22;6303;51.504;6.300;2022-10-22T12:39:13;24.10;64.90
12477;DHT22;6303;51.504;6.300;2022-10-22T12:41:41;24.10;64.80
12477;DHT22;6303;51.504;6.300;2022-10-22T12:44:11;24.20;64.80
12477;DHT22;6303;51.504;6.300;2022-10-22T12:46:40;24.20;64.80
12477;DHT22;6303;51.504;6.300;2022-10-22T12:49:13;24.20;64.50
12477;DHT22;6303;51.504;6.300;2022-10-22T12:51:42;24.20;64.40
12477;DHT22;6303;51.504;6.300;2022-10-22T12:54:17;24.30;64.20
12477;DHT22;6303;51.504;6.300;2022-10-22T12:56:46;24.40;64.90
12477;DHT22;6303;51.504;6.300;2022-10-22T12:59:17;25.70;64.60
12477;DHT22;6303;51.504;6.300;2022-10-22T13:01:47;24.50;63.60
12477;DHT22;6303;51.504;6.300;2022-10-22T13:04:20;24.50;63.70
12477;DHT22;6303;51.504;6.300;2022-10-22T13:06:50;24.50;63.40
12477;DHT22;6303;51.504;6.300;2022-10-22T13:09:20;24.40;63.50
12477;DHT22;6303;51.504;6.300;2022-10-22T13:11:50;24.40;63.70
12477;DHT22;6303;51.504;6.300;2022-10-22T13:14:24;24.40;63.80
12477;DHT22;6303;51.504;6.300;2022-10-22T13:17:10;24.40;63.80
12477;DHT22;6303;51.504;6.300;2022-10-22T13:19:41;24.40;64.00
12477;DHT22;6303;51.504;6.300;2022-10-22T13:22:29;24.40;64.00
12477;DHT22;6303;51.504;6.300;2022-10-22T13:25:02;24.40;63.90
12477;DHT22;6303;51.504;6.300;2022-10-22T13:27:30;24.40;63.90
12477;DHT22;6303;51.504;6.300;2022-10-22T13:30:08;24.40;63.90
12477;DHT22;6303;51.504;6.300;2022-10-22T13:32:36;24.40;63.90
12477;DHT22;6303;51.504;6.300;2022-10-22T13:35:05;24.40;63.90
12477;DHT22;6303;51.504;6.300;2022-10-22T13:37:32;24.50;63.80
12477;DHT22;6303;51.504;6.300;2022-10-22T13:40:04;24.50;63.70
12477;DHT22;6303;51.504;6.300;2022-10-22T13:42:31;24.50;63.70
12477;DHT22;6303;51.504;6.300;2022-10-22T13:44:58;24.50;63.60
12477;DHT22;6303;51.504;6.300;2022-10-22T13:47:27;24.50;63.60
12477;DHT22;6303;51.504;6.300;2022-10-22T13:49:58;24.50;63.60
12477;DHT22;6303;51.504;6.300;2022-10-22T13:52:28;24.50;63.60
12477;DHT22;6303;51.504;6.300;2022-10-22T13:54:57;24.50;63.60
12477;DHT22;6303;51.504;6.300;2022-10-22T13:57:25;24.50;63.60
12477;DHT22;6303;51.504;6.300;2022-10-22T13:59:52;24.50;63.60
12477;DHT22;6303;51.504;6.300;2022-10-22T14:02:19;24.50;63.50
12477;DHT22;6303;51.504;6.300;2022-10-22T14:04:50;24.50;63.50
12477;DHT22;6303;51.504;6.300;2022-10-22T14:07:17;24.50;63.50
12477;DHT22;6303;51.504;6.300;2022-10-22T14:09:44;24.50;63.70
12477;DHT22;6303;51.504;6.300;2022-10-22T14:12:13;24.50;63.50
12477;DHT22;6303;51.504;6.300;2022-10-22T14:14:42;24.50;63.70
12477;DHT22;6303;51.504;6.300;2022-10-22T14:17:13;24.50;63.90
12477;DHT22;6303;51.504;6.300;2022-10-22T14:19:43;24.50;63.80
12477;DHT22;6303;51.504;6.300;2022-10-22T14:22:15;24.50;63.70
12477;DHT22;6303;51.504;6.300;2022-10-22T14:24:42;24.50;63.70
12477;DHT22;6303;51.504;6.300;2022-10-22T14:27:11;24.50;63.70
12477;DHT22;6303;51.504;6.300;2022-10-22T14:29:38;24.50;64.10
12477;DHT22;6303;51.504;6.300;2022-10-22T14:32:12;24.50;64.30
12477;DHT22;6303;51.504;6.300;2022-10-22T14:34:40;24.50;64.80
12477;DHT22;6303;51.504;6.300;2022-10-22T14:37:25;24.50;65.90
12477;DHT22;6303;51.504;6.300;2022-10-22T14:39:52;24.50;66.20
12477;DHT22;6303;51.504;6.300;2022-10-22T14:42:26;24.60;66.10
12477;DHT22;6303;51.504;6.300;2022-10-22T14:44:53;24.60;66.80
12477;DHT22;6303;51.504;6.300;2022-10-22T14:47:21;24.60;66.70
12477;DHT22;6303;51.504;6.300;2022-10-22T14:49:48;24.60;66.40
12477;DHT22;6303;51.504;6.300;2022-10-22T14:52:15;24.60;66.40
12477;DHT22;6303;51.504;6.300;2022-10-22T14:54:43;24.60;66.40
12477;DHT22;6303;51.504;6.300;2022-10-22T14:57:10;24.50;66.70
12477;DHT22;6303;51.504;6.300;2022-10-22T14:59:39;24.50;66.40
12477;DHT22;6303;51.504;6.300;2022-10-22T15:02:09;24.50;66.40
12477;DHT22;6303;51.504;6.300;2022-10-22T15:04:39;24.50;66.20
12477;DHT22;6303;51.504;6.300;2022-10-22T15:07:06;24.50;65.70
12477;DHT22;6303;51.504;6.300;2022-10-22T15:09:33;24.50;65.60
12477;DHT22;6303;51.504;6.300;2022-10-22T15:12:00;24.50;65.40
12477;DHT22;6303;51.504;6.300;2022-10-22T15:14:27;24.50;65.50
12477;DHT22;6303;51.504;6.300;2022-10-22T15:16:54;24.40;65.60
12477;DHT22;6303;51.504;6.300;2022-10-22T15:19:21;24.40;65.60
12477;DHT22;6303;51.504;6.300;2022-10-22T15:21:50;24.40;65.60
12477;DHT22;6303;51.504;6.300;2022-10-22T15:24:17;24.40;65.90
12477;DHT22;6303;51.504;6.300;2022-10-22T15:26:44;24.50;65.90
12477;DHT22;6303;51.504;6.300;2022-10-22T15:29:11;24.50;65.50
12477;DHT22;6303;51.504;6.300;2022-10-22T15:31:44;24.40;65.60
12477;DHT22;6303;51.504;6.300;2022-10-22T15:34:11;24.40;65.40
12477;DHT22;6303;51.504;6.300;2022-10-22T15:36:38;24.50;65.40
12477;DHT22;6303;51.504;6.300;2022-10-22T15:39:08;24.50;65.50
12477;DHT22;6303;51.504;6.300;2022-10-22T15:41:35;24.40;65.50
12477;DHT22;6303;51.504;6.300;2022-10-22T15:44:03;24.40;65.50
12477;DHT22;6303;51.504;6.300;2022-10-22T15:46:31;24.40;65.60
12477;DHT22;6303;51.504;6.300;2022-10-22T15:48:58;24.40;65.60
12477;DHT22;6303;51.504;6.300;2022-10-22T15:51:26;24.40;65.60
12477;DHT22;6303;51.504;6.300;2022-10-22T15:53:54;24.40;65.70
12477;DHT22;6303;51.504;6.300;2022-10-22T15:56:24;24.40;65.70
12477;DHT22;6303;51.504;6.300;2022-10-22T15:58:52;24.30;65.60
12477;DHT22;6303;51.504;6.300;2022-10-22T16:01:19;24.30;65.70
12477;DHT22;6303;51.504;6.300;2022-10-22T16:03:48;24.30;65.80
12477;DHT22;6303;51.504;6.300;2022-10-22T16:06:17;24.30;65.70
12477;DHT22;6303;51.504;6.300;2022-10-22T16:08:44;24.30;65.70